Allentown, PA

11:16 AM EDT on August 27, 2016 (GMT -0400)
West Park | | Change Station

Elev 400 ft 40.60 °N, 75.49 °W | Updated 3 minutes ago

Clear
Clear
86.4 °F
Feels Like 89 °F
N
5.3
Wind Variable Wind from ENE

Today
High -- | Low -- °F
--% Chance of Precip.
Yesterday
High -- | Low -- °F
Precip. -- in
Pressure 30.23 in
Visibility 10.0 miles
Clouds Clear
Heat Index 89 °F
Dew Point 66 °F
Humidity 51%
Rainfall 0.00 in
Snow Depth Not available.
6:24 AM 7:41 PM
Waning Crescent, 24% visible
METAR KXLL 271455Z AUTO 06004KT 10SM CLR 27/17 A3023 RMK AO2
Pressure 30.23 in
Visibility 10.0 miles
Clouds Clear
Heat Index 89 °F
Dew Point 66 °F
Humidity 51%
Rainfall 0.00 in
Snow Depth Not available.
6:24 AM 7:41 PM
Waning Crescent, 24% visible
METAR KXLL 271455Z AUTO 06004KT 10SM CLR 27/17 A3023 RMK AO2

10-Day Weather Forecast

Almanac

Astronomy

Aug. 27, 2016 Rise Set
Actual Time
Civil Twilight
Nautical Twilight
Astronomical Twilight
Moon
Length of Visible Light
Length of Day
Tomorrow will be .
, % of the Moon is Illuminated

Today's Extremes

State Highs State Lows

Community

WunderPhotos

Upload Photos

1,935,354 photos uploaded!

WunderBlog® & News

Nearby

Air Quality

  Air Quality AQ Index Pollutant
Not available.

Snow Depth

Station Depth Elevation

Earthquake Activity

City Distance Mag. Time & Date
Minimum magnitude displayed is 2.5.

Coastal Water Temperatures

Place Temperature

Stations

Nearby Weather Stations

Station Location Temp. Windchill Dew Point Humidity Wind Precip. Elev Updated Type
                   

Watches & Warnings

There are currently no watches in effect.